Time;durP1;ratioP1;P1;durP2;ratioP2;P2;SDS_P1;SDS_P2;PMS_P1;PMS_P2;Temp;Humidity;BMP_temperature;BMP_pressure;BME280_temperature;BME280_humidity;BME280_pressure;Samples;Min_cycle;Max_cycle;Signal;HPM_P1;HPM_P2
2021/03/16 00:00:11;;;;;;;8.32;1.67;;;7.10;99.90;;;;;;5012212;28;20021;-78
2021/03/16 00:02:38;;;;;;;4.63;1.75;;;7.00;99.90;;;;;;5012646;28;20067;-78
2021/03/16 00:05:05;;;;;;;4.55;1.40;;;7.00;99.90;;;;;;5012034;28;20367;-78
2021/03/16 00:07:31;;;;;;;4.50;1.30;;;7.00;99.90;;;;;;5011500;28;20037;-78
2021/03/16 00:10:01;;;;;;;8.48;1.73;;;7.00;99.90;;;;;;5005385;28;20022;-78
2021/03/16 00:12:29;;;;;;;4.65;1.20;;;7.00;99.90;;;;;;5011796;28;20029;-78
2021/03/16 00:14:55;;;;;;;5.78;1.73;;;7.00;99.90;;;;;;5012151;28;20049;-78
2021/03/16 00:17:20;;;;;;;6.93;2.05;;;7.00;99.90;;;;;;5011960;28;20038;-78
2021/03/16 00:19:47;;;;;;;6.10;1.77;;;7.00;99.90;;;;;;5012785;28;20049;-78
2021/03/16 00:22:12;;;;;;;5.22;1.20;;;7.00;99.90;;;;;;5011985;28;20038;-79
2021/03/16 00:24:38;;;;;;;9.13;2.22;;;6.90;99.90;;;;;;5012428;28;20029;-78
2021/03/16 00:27:04;;;;;;;4.15;2.08;;;6.90;99.90;;;;;;5012276;28;20048;-78
2021/03/16 00:29:30;;;;;;;6.88;1.70;;;6.90;99.90;;;;;;5012024;28;20105;-78
2021/03/16 00:31:56;;;;;;;5.38;1.90;;;7.00;99.90;;;;;;5011683;28;20104;-78
2021/03/16 00:34:22;;;;;;;3.30;1.55;;;7.00;99.90;;;;;;5012555;28;20022;-78
2021/03/16 00:36:48;;;;;;;8.25;1.83;;;7.00;99.90;;;;;;5012035;28;20129;-78
2021/03/16 00:39:14;;;;;;;7.43;2.33;;;7.10;99.90;;;;;;5012332;28;20037;-78
2021/03/16 00:41:40;;;;;;;6.07;1.52;;;7.10;99.90;;;;;;5011284;28;20036;-78
2021/03/16 00:44:06;;;;;;;3.78;1.90;;;7.10;99.90;;;;;;5011984;28;20020;-78
2021/03/16 00:46:33;;;;;;;5.55;2.55;;;7.10;99.90;;;;;;5011300;28;20489;-78
2021/03/16 00:48:59;;;;;;;6.80;2.10;;;7.00;99.90;;;;;;5011955;28;20026;-78
2021/03/16 00:51:25;;;;;;;9.85;2.70;;;7.00;99.90;;;;;;5011558;28;20115;-78
2021/03/16 00:53:50;;;;;;;6.57;2.17;;;6.90;99.90;;;;;;5015411;28;20075;-78
2021/03/16 00:56:16;;;;;;;9.70;2.38;;;7.00;99.90;;;;;;5015971;28;20034;-78
2021/03/16 00:58:42;;;;;;;6.60;2.08;;;7.00;99.90;;;;;;5015631;28;20414;-78
2021/03/16 01:01:08;;;;;;;5.00;2.20;;;7.00;99.90;;;;;;5015948;28;20111;-78
2021/03/16 01:03:35;;;;;;;9.27;2.35;;;7.00;99.90;;;;;;5015035;28;20022;-79
2021/03/16 01:06:01;;;;;;;4.57;1.73;;;7.00;99.90;;;;;;5015012;28;20033;-78
2021/03/16 01:08:27;;;;;;;6.00;2.58;;;6.90;99.90;;;;;;5015384;28;20051;-78
2021/03/16 01:10:53;;;;;;;8.55;1.98;;;7.00;99.90;;;;;;5015342;28;20119;-78
2021/03/16 01:13:20;;;;;;;5.13;1.98;;;7.00;99.90;;;;;;5015069;28;20037;-78
2021/03/16 01:15:46;;;;;;;9.30;2.33;;;7.00;99.90;;;;;;5015264;28;20022;-78
2021/03/16 01:18:12;;;;;;;4.25;3.05;;;7.00;99.90;;;;;;5015133;28;20032;-78
2021/03/16 01:20:38;;;;;;;3.65;1.95;;;7.00;99.90;;;;;;5015098;28;20021;-78
2021/03/16 01:23:04;;;;;;;4.38;1.65;;;7.00;99.90;;;;;;5014904;28;20026;-78
2021/03/16 01:25:30;;;;;;;5.93;2.03;;;7.00;99.90;;;;;;5015299;28;20072;-78
2021/03/16 01:27:56;;;;;;;4.00;1.50;;;7.00;99.90;;;;;;5015194;28;20029;-79
2021/03/16 01:30:23;;;;;;;8.82;2.22;;;7.00;99.90;;;;;;5015009;28;20023;-79
2021/03/16 01:32:50;;;;;;;6.50;2.67;;;7.00;99.90;;;;;;5014896;28;20069;-78
2021/03/16 01:35:16;;;;;;;5.57;1.90;;;7.10;99.90;;;;;;5014520;28;20088;-78
2021/03/16 01:37:43;;;;;;;9.73;1.63;;;7.10;99.90;;;;;;5014968;28;20037;-78
2021/03/16 01:40:15;;;;;;;12.57;1.83;;;7.10;99.90;;;;;;5014839;28;20446;-78
2021/03/16 01:42:42;;;;;;;4.90;1.67;;;7.10;99.90;;;;;;5014699;28;20097;-78
2021/03/16 01:45:10;;;;;;;6.03;2.28;;;7.10;99.90;;;;;;5014492;28;20067;-78
2021/03/16 01:47:36;;;;;;;7.25;1.60;;;7.10;99.90;;;;;;5014593;28;20025;-78
2021/03/16 01:50:04;;;;;;;5.30;1.45;;;7.10;99.90;;;;;;5014172;28;20052;-77
2021/03/16 01:52:31;;;;;;;6.70;1.40;;;7.10;99.90;;;;;;5014250;28;20585;-77
2021/03/16 01:54:58;;;;;;;6.07;1.20;;;7.10;99.90;;;;;;5014806;28;20030;-78
2021/03/16 01:57:26;;;;;;;8.38;1.90;;;7.10;99.90;;;;;;5013602;28;20045;-78
2021/03/16 01:59:51;;;;;;;6.40;1.65;;;7.10;99.90;;;;;;5014321;28;20389;-78
2021/03/16 02:02:17;;;;;;;8.57;1.67;;;7.20;99.90;;;;;;5013969;28;20014;-77
2021/03/16 02:04:43;;;;;;;4.32;1.48;;;7.10;99.90;;;;;;5028106;28;20021;-77
2021/03/16 02:07:20;;;;;;;6.72;2.25;;;7.10;99.90;;;;;;5013869;28;20124;-77
2021/03/16 02:10:11;;;;;;;10.43;2.28;;;7.10;99.90;;;;;;5013853;28;20497;-78
2021/03/16 02:12:48;;;;;;;9.00;1.70;;;7.10;99.90;;;;;;5014088;28;20148;-78
2021/03/16 02:15:20;;;;;;;7.68;2.25;;;7.10;99.90;;;;;;5013727;28;20014;-78
2021/03/16 02:17:53;;;;;;;5.30;1.52;;;7.10;99.90;;;;;;5013614;28;20022;-78
2021/03/16 02:20:33;;;;;;;7.35;1.60;;;7.10;99.90;;;;;;5013978;28;20025;-78
2021/03/16 02:23:02;;;;;;;4.43;2.05;;;7.10;99.90;;;;;;5014283;28;20402;-78
2021/03/16 02:25:38;;;;;;;3.10;1.42;;;7.10;99.90;;;;;;5012499;28;20026;-79
2021/03/16 02:28:27;;;;;;;4.80;1.17;;;7.10;99.90;;;;;;5012912;28;20021;-78
2021/03/16 02:30:54;;;;;;;4.00;2.05;;;7.10;99.90;;;;;;5013946;28;20072;-78
2021/03/16 02:33:25;;;;;;;8.13;2.13;;;7.10;99.90;;;;;;5013347;28;20038;-78
2021/03/16 02:35:52;;;;;;;7.90;1.63;;;7.00;99.90;;;;;;5013693;28;20029;-78
2021/03/16 02:38:22;;;;;;;1.92;1.60;;;7.00;99.90;;;;;;5013791;28;20022;-78
2021/03/16 02:40:48;;;;;;;;;;;7.00;99.90;;;;;;5014328;28;20500;-78
2021/03/16 02:43:15;;;;;;;9.38;2.53;;;7.00;99.90;;;;;;5013950;28;20000;-78
2021/03/16 02:45:42;;;;;;;6.80;1.70;;;7.00;99.90;;;;;;5013504;28;20057;-78
2021/03/16 02:48:09;;;;;;;7.47;1.15;;;7.00;99.90;;;;;;5013027;28;20032;-78
2021/03/16 02:50:35;;;;;;;6.40;1.88;;;7.00;99.90;;;;;;5012924;28;20057;-78
2021/03/16 02:53:02;;;;;;;8.05;2.88;;;7.00;99.90;;;;;;5013438;28;20025;-79
2021/03/16 02:55:30;;;;;;;2.90;1.40;;;7.00;99.90;;;;;;5012927;28;20030;-78
2021/03/16 02:57:57;;;;;;;4.07;1.77;;;7.00;99.90;;;;;;5013237;28;20091;-79
2021/03/16 03:00:24;;;;;;;4.90;1.50;;;6.90;99.90;;;;;;5013286;28;20029;-78
2021/03/16 03:02:51;;;;;;;6.90;2.25;;;7.00;99.90;;;;;;5012344;28;20017;-78
2021/03/16 03:05:18;;;;;;;6.88;1.77;;;6.90;99.90;;;;;;5012197;28;20021;-80
2021/03/16 03:07:45;;;;;;;7.70;2.97;;;6.90;99.90;;;;;;5011474;28;20026;-78
2021/03/16 03:10:12;;;;;;;3.78;1.55;;;6.90;99.90;;;;;;5013068;28;20083;-78
2021/03/16 03:12:38;;;;;;;6.13;2.08;;;6.90;99.90;;;;;;5012880;28;20026;-78
2021/03/16 03:15:08;;;;;;;6.68;1.48;;;6.90;99.90;;;;;;5012501;28;20034;-78
2021/03/16 03:17:34;;;;;;;5.13;1.48;;;6.90;99.90;;;;;;5013019;28;20052;-78
2021/03/16 03:20:00;;;;;;;4.50;1.77;;;6.90;99.90;;;;;;5012540;28;20048;-78
2021/03/16 03:22:42;;;;;;;7.68;2.15;;;6.90;99.90;;;;;;5012761;28;20536;-78
2021/03/16 03:25:31;;;;;;;4.88;2.67;;;7.00;99.90;;;;;;5006364;28;20052;-78
2021/03/16 03:28:13;;;;;;;4.23;1.40;;;6.90;99.90;;;;;;5012284;28;20398;-78
2021/03/16 03:30:40;;;;;;;7.57;2.05;;;7.00;99.90;;;;;;5012091;28;20029;-79
2021/03/16 03:33:06;;;;;;;8.95;1.92;;;7.00;99.90;;;;;;5012606;28;20029;-78
2021/03/16 03:35:35;;;;;;;15.25;3.15;;;7.00;99.90;;;;;;5012503;28;20413;-78
2021/03/16 03:38:02;;;;;;;6.05;1.60;;;7.10;99.90;;;;;;5012475;28;20613;-78
2021/03/16 03:40:29;;;;;;;4.43;1.67;;;7.10;99.90;;;;;;5012464;28;20608;-78
2021/03/16 03:42:57;;;;;;;7.93;2.38;;;7.10;99.90;;;;;;5012462;28;20048;-78
2021/03/16 03:45:25;;;;;;;5.88;1.67;;;7.10;99.90;;;;;;5012071;28;20113;-78
2021/03/16 03:47:52;;;;;;;7.90;1.83;;;7.10;99.90;;;;;;5012012;28;20029;-78
2021/03/16 03:50:18;;;;;;;12.57;2.72;;;7.10;99.90;;;;;;5012112;28;20046;-77
2021/03/16 03:52:46;;;;;;;5.18;1.50;;;7.10;99.90;;;;;;5012057;28;20030;-77
2021/03/16 03:55:13;;;;;;;3.60;1.58;;;7.10;99.90;;;;;;5012730;28;20559;-78
2021/03/16 03:57:41;;;;;;;7.43;1.50;;;7.00;99.90;;;;;;5012237;28;20083;-77
2021/03/16 04:00:14;;;;;;;3.88;1.92;;;7.10;99.90;;;;;;5011606;28;20084;-78
2021/03/16 04:02:41;;;;;;;7.75;1.83;;;7.10;99.90;;;;;;5008431;28;20021;-79
2021/03/16 04:05:11;;;;;;;6.75;2.00;;;7.00;99.90;;;;;;5011849;28;20104;-78
2021/03/16 04:07:37;;;;;;;7.35;1.90;;;7.00;99.90;;;;;;5012035;28;20029;-78
2021/03/16 04:10:08;;;;;;;4.55;1.85;;;7.00;99.90;;;;;;5011621;28;20058;-78
2021/03/16 04:12:36;;;;;;;5.10;2.70;;;7.00;99.90;;;;;;5012129;28;20084;-78
2021/03/16 04:15:07;;;;;;;10.13;2.47;;;7.00;99.90;;;;;;5011623;28;20038;-78
2021/03/16 04:17:34;;;;;;;3.95;1.77;;;7.00;99.90;;;;;;5011992;28;20065;-78
2021/03/16 04:20:00;;;;;;;7.90;2.35;;;7.00;99.90;;;;;;5011951;28;20494;-77
2021/03/16 04:22:28;;;;;;;4.57;1.95;;;7.00;99.90;;;;;;5011718;28;20022;-78
2021/03/16 04:24:56;;;;;;;6.35;2.10;;;7.00;99.90;;;;;;5011774;28;20037;-78
2021/03/16 04:27:25;;;;;;;5.95;2.03;;;7.00;99.90;;;;;;5012466;28;20037;-77
2021/03/16 04:29:51;;;;;;;7.07;1.77;;;7.00;99.90;;;;;;5015626;28;20029;-77
2021/03/16 04:32:18;;;;;;;5.93;1.80;;;7.00;99.90;;;;;;5016379;28;20300;-78
2021/03/16 04:34:44;;;;;;;6.68;2.05;;;7.00;99.90;;;;;;5016136;28;20030;-77
2021/03/16 04:37:11;;;;;;;7.65;2.28;;;7.00;99.90;;;;;;5016219;28;20124;-78
2021/03/16 04:39:37;;;;;;;7.35;2.00;;;7.00;99.90;;;;;;5016048;28;20375;-78
2021/03/16 04:42:03;;;;;;;8.38;2.13;;;7.00;99.90;;;;;;5016088;28;20052;-78
2021/03/16 04:44:28;;;;;;;7.57;2.00;;;7.10;99.90;;;;;;5016195;28;20105;-77
2021/03/16 04:46:55;;;;;;;4.53;1.60;;;7.10;99.90;;;;;;5014958;28;20521;-77
2021/03/16 04:49:20;;;;;;;9.07;2.38;;;7.10;99.90;;;;;;5015705;28;20038;-78
2021/03/16 04:51:46;;;;;;;4.68;1.90;;;7.10;99.90;;;;;;5015447;28;20057;-77
2021/03/16 04:54:12;;;;;;;8.00;2.33;;;7.10;99.90;;;;;;5016089;28;20033;-78
2021/03/16 04:56:38;;;;;;;6.07;1.98;;;7.20;99.50;;;;;;5015675;28;20030;-77
2021/03/16 04:59:04;;;;;;;4.25;1.90;;;7.20;99.90;;;;;;5015451;28;20033;-78
2021/03/16 05:01:31;;;;;;;9.98;1.73;;;7.20;99.90;;;;;;5015812;28;20029;-77
2021/03/16 05:03:57;;;;;;;6.97;1.80;;;7.20;99.20;;;;;;5015145;28;20097;-77
2021/03/16 05:06:22;;;;;;;7.43;2.00;;;7.20;99.90;;;;;;5006411;28;20065;-77
2021/03/16 05:08:49;;;;;;;6.85;2.28;;;7.20;99.90;;;;;;5013816;28;20061;-77
2021/03/16 05:11:14;;;;;;;5.30;1.85;;;7.20;99.90;;;;;;5015288;28;20028;-77
2021/03/16 05:13:40;;;;;;;8.35;2.13;;;7.20;99.90;;;;;;5016008;28;20018;-77
2021/03/16 05:16:07;;;;;;;6.60;1.88;;;7.20;99.70;;;;;;5013105;28;20127;-78
2021/03/16 05:18:33;;;;;;;6.35;2.28;;;7.20;99.90;;;;;;5008796;28;20032;-78
2021/03/16 05:20:59;;;;;;;7.80;1.80;;;7.20;99.90;;;;;;5008423;28;20492;-78
2021/03/16 05:23:25;;;;;;;5.80;2.15;;;7.20;99.90;;;;;;5014351;28;20034;-77
2021/03/16 05:25:51;;;;;;;4.18;1.90;;;7.20;99.90;;;;;;5015327;28;20030;-77
2021/03/16 05:28:16;;;;;;;5.25;2.05;;;7.20;99.90;;;;;;5015312;28;20028;-77
2021/03/16 05:30:42;;;;;;;7.00;2.00;;;7.10;99.90;;;;;;5014312;28;20110;-77
2021/03/16 05:33:08;;;;;;;13.15;2.92;;;7.10;99.90;;;;;;5015284;28;20088;-77
2021/03/16 05:35:34;;;;;;;7.55;2.33;;;7.10;99.90;;;;;;5014864;28;20038;-77
2021/03/16 05:38:00;;;;;;;6.30;2.33;;;7.10;99.90;;;;;;5013836;28;20060;-77
2021/03/16 05:40:29;;;;;;;6.57;2.78;;;7.00;99.90;;;;;;5013436;28;20022;-77
2021/03/16 05:42:57;;;;;;;8.05;1.90;;;7.00;99.90;;;;;;5015278;28;20088;-77
2021/03/16 05:45:23;;;;;;;5.63;2.10;;;7.00;99.90;;;;;;5013313;28;20030;-77
2021/03/16 05:47:50;;;;;;;6.43;2.45;;;6.90;99.90;;;;;;5014594;28;20038;-77
2021/03/16 05:50:17;;;;;;;7.13;2.72;;;6.80;99.90;;;;;;5014946;28;20050;-77
2021/03/16 05:52:43;;;;;;;9.05;2.15;;;6.80;99.90;;;;;;5014609;28;20041;-77
2021/03/16 05:55:10;;;;;;;8.00;2.70;;;6.80;99.90;;;;;;5012835;28;20494;-78
2021/03/16 05:57:36;;;;;;;6.78;2.70;;;6.90;99.90;;;;;;5010530;28;20041;-78
2021/03/16 06:00:04;;;;;;;9.23;2.22;;;6.90;99.90;;;;;;5007075;28;20026;-77
2021/03/16 06:02:30;;;;;;;11.77;2.22;;;6.90;99.90;;;;;;5007915;28;20033;-77
2021/03/16 06:04:56;;;;;;;7.38;2.03;;;6.90;99.90;;;;;;5007468;28;20391;-78
2021/03/16 06:07:22;;;;;;;8.98;2.58;;;7.00;99.90;;;;;;4997106;28;20085;-78
2021/03/16 06:09:49;;;;;;;5.22;2.33;;;6.90;99.90;;;;;;5014091;28;20498;-77
2021/03/16 06:12:15;;;;;;;5.22;2.03;;;6.90;99.90;;;;;;5013635;28;20037;-78
2021/03/16 06:14:41;;;;;;;8.60;2.28;;;6.90;99.90;;;;;;5013564;28;20030;-78
2021/03/16 06:17:07;;;;;;;6.90;2.38;;;6.90;99.90;;;;;;5013734;28;20398;-78
2021/03/16 06:19:39;;;;;;;6.65;2.10;;;6.90;99.90;;;;;;5014552;28;20474;-78
2021/03/16 06:22:06;;;;;;;5.80;2.30;;;6.90;99.90;;;;;;5013722;28;20018;-77
2021/03/16 06:24:42;;;;;;;6.07;2.50;;;7.00;99.90;;;;;;5013796;28;20058;-78
2021/03/16 06:27:19;;;;;;;6.13;2.03;;;6.90;99.90;;;;;;5014349;28;20052;-77
2021/03/16 06:29:46;;;;;;;11.77;2.42;;;6.90;99.90;;;;;;5014405;28;20541;-78
2021/03/16 06:32:12;;;;;;;7.35;2.20;;;6.90;99.90;;;;;;5014183;28;20062;-78
2021/03/16 06:34:38;;;;;;;7.22;2.67;;;6.90;99.90;;;;;;5014045;28;20540;-78
2021/03/16 06:37:04;;;;;;;10.23;3.45;;;6.90;99.90;;;;;;5014059;28;20109;-78
2021/03/16 06:39:30;;;;;;;9.52;2.35;;;6.90;99.90;;;;;;5013567;28;20018;-79
2021/03/16 06:41:57;;;;;;;10.75;3.92;;;7.10;99.90;;;;;;5014483;28;20092;-81
2021/03/16 06:44:24;;;;;;;7.78;2.78;;;7.10;99.90;;;;;;5013568;28;20106;-80
2021/03/16 06:47:00;;;;;;;10.63;3.15;;;7.20;99.90;;;;;;5014744;28;20053;-80
2021/03/16 06:49:26;;;;;;;6.00;2.03;;;7.20;99.90;;;;;;5017838;28;20498;-80
2021/03/16 06:51:56;;;;;;;8.43;3.05;;;7.10;99.90;;;;;;5013626;28;20048;-80
2021/03/16 06:54:26;;;;;;;9.95;2.38;;;7.20;99.90;;;;;;5012873;28;20481;-80
2021/03/16 06:56:52;;;;;;;8.27;2.22;;;7.20;99.90;;;;;;5013394;28;20491;-80
2021/03/16 06:59:27;;;;;;;9.50;2.58;;;7.20;99.90;;;;;;5011145;28;20812;-80
2021/03/16 07:01:53;;;;;;;7.78;2.75;;;7.20;99.90;;;;;;5014065;28;20421;-78
2021/03/16 07:04:23;;;;;;;7.03;3.20;;;7.20;99.90;;;;;;5014273;28;20076;-80
2021/03/16 07:06:50;;;;;;;6.72;2.20;;;7.20;99.90;;;;;;5014019;28;20462;-79
2021/03/16 07:09:17;;;;;;;11.63;3.78;;;7.20;99.90;;;;;;5013893;28;20022;-80
2021/03/16 07:11:50;;;;;;;7.55;2.53;;;7.20;99.90;;;;;;5012664;28;20080;-80
2021/03/16 07:14:21;;;;;;;9.57;2.78;;;7.20;99.90;;;;;;5014102;28;20040;-79
2021/03/16 07:16:48;;;;;;;4.07;2.20;;;7.20;99.90;;;;;;5013541;28;20030;-82
2021/03/16 07:19:16;;;;;;;6.72;2.67;;;7.20;99.90;;;;;;5013898;28;20034;-82
2021/03/16 07:21:53;;;;;;;9.65;2.22;;;7.30;99.90;;;;;;5013096;28;20026;-75
2021/03/16 07:24:23;;;;;;;8.55;2.85;;;7.40;99.90;;;;;;5013874;28;20034;-74
2021/03/16 07:26:49;;;;;;;7.10;2.88;;;7.40;99.90;;;;;;5013556;28;20030;-76
2021/03/16 07:29:16;;;;;;;7.22;3.20;;;7.60;99.90;;;;;;5014479;28;20450;-81
2021/03/16 07:31:43;;;;;;;5.28;2.92;;;7.60;99.30;;;;;;5013416;28;20041;-82
2021/03/16 07:34:11;;;;;;;7.53;2.20;;;7.70;99.30;;;;;;5013382;28;20075;-81
2021/03/16 07:36:38;;;;;;;7.32;3.53;;;7.70;99.70;;;;;;5013345;28;20101;-82
2021/03/16 07:39:09;;;;;;;5.32;2.58;;;7.70;98.70;;;;;;5013815;28;20030;-81
2021/03/16 07:41:40;;;;;;;6.85;2.58;;;7.70;99.70;;;;;;5013753;28;20037;-81
2021/03/16 07:44:08;;;;;;;5.93;2.40;;;7.80;99.50;;;;;;5013605;28;20026;-82
2021/03/16 07:46:49;;;;;;;4.63;2.13;;;7.80;98.90;;;;;;5012355;28;20549;-81
2021/03/16 07:49:27;;;;;;;4.28;3.00;;;7.80;99.30;;;;;;5013625;28;20386;-82
2021/03/16 07:51:53;;;;;;;8.75;3.03;;;7.80;99.60;;;;;;5012913;28;20034;-81
2021/03/16 07:54:21;;;;;;;6.45;2.80;;;7.80;99.40;;;;;;5013444;28;20475;-83
2021/03/16 07:56:57;;;;;;;9.52;2.72;;;7.80;99.70;;;;;;5013219;28;20394;-82
2021/03/16 07:59:34;;;;;;;12.80;3.35;;;7.90;99.20;;;;;;5013327;28;20117;-81
2021/03/16 08:02:01;;;;;;;5.18;2.88;;;7.90;98.70;;;;;;5012455;28;20021;-81
2021/03/16 08:04:37;;;;;;;10.35;2.90;;;8.00;98.40;;;;;;5013175;28;20057;-82
2021/03/16 08:07:05;;;;;;;10.23;2.75;;;8.00;97.90;;;;;;5012182;28;20024;-81
2021/03/16 08:09:31;;;;;;;9.52;3.45;;;8.00;98.40;;;;;;5013156;28;20045;-82
2021/03/16 08:11:57;;;;;;;7.78;2.80;;;8.10;97.10;;;;;;5012627;28;20014;-81
2021/03/16 08:14:30;;;;;;;8.48;2.17;;;8.20;96.60;;;;;;5013234;28;20112;-82
2021/03/16 08:16:56;;;;;;;10.25;3.70;;;8.20;96.70;;;;;;5013165;28;20030;-82
2021/03/16 08:19:34;;;;;;;8.52;3.33;;;8.30;96.40;;;;;;5013023;28;20391;-82
2021/03/16 08:22:00;;;;;;;10.15;2.85;;;8.90;95.10;;;;;;5012999;28;20068;-81
2021/03/16 08:24:40;;;;;;;9.82;2.35;;;9.20;93.40;;;;;;5012817;28;20018;-81
2021/03/16 08:27:08;;;;;;;7.43;2.70;;;8.90;93.70;;;;;;5012804;28;20392;-82
2021/03/16 08:29:34;;;;;;;4.25;2.58;;;8.70;94.10;;;;;;5013248;28;20116;-82
2021/03/16 08:32:00;;;;;;;10.15;2.72;;;8.60;95.50;;;;;;5012797;28;20074;-82
2021/03/16 08:34:28;;;;;;;10.13;4.22;;;8.50;95.50;;;;;;5011451;28;20454;-82
2021/03/16 08:36:54;;;;;;;9.73;4.40;;;8.50;96.00;;;;;;5012815;28;20026;-82
2021/03/16 08:39:21;;;;;;;9.82;2.70;;;8.60;95.90;;;;;;5013033;28;20038;-81
2021/03/16 08:42:01;;;;;;;6.75;2.33;;;9.00;95.10;;;;;;5012878;28;20417;-82
2021/03/16 08:44:28;;;;;;;;;;;9.00;94.70;;;;;;5013341;28;20030;-81
2021/03/16 08:46:56;;;;;;;6.90;2.83;;;9.20;94.60;;;;;;5012483;28;19945;-82
2021/03/16 08:49:24;;;;;;;5.53;2.42;;;9.30;95.10;;;;;;5012731;28;20049;-81
2021/03/16 08:51:50;;;;;;;9.77;3.00;;;9.60;94.70;;;;;;5012720;28;20092;-81
2021/03/16 08:54:27;;;;;;;7.72;2.50;;;9.90;93.60;;;;;;5013127;28;20030;-82
2021/03/16 08:56:53;;;;;;;9.70;2.38;;;9.80;92.40;;;;;;5012918;28;20030;-81
2021/03/16 08:59:22;;;;;;;7.97;2.90;;;9.30;92.70;;;;;;5012777;28;20040;-81
2021/03/16 09:01:50;;;;;;;8.52;2.50;;;9.00;95.60;;;;;;5012753;28;20098;-82
2021/03/16 09:04:17;;;;;;;6.93;2.60;;;8.80;94.30;;;;;;5012323;28;20010;-81
2021/03/16 09:06:43;;;;;;;8.02;2.50;;;9.10;94.80;;;;;;5012625;28;20026;-82
2021/03/16 09:09:11;;;;;;;5.60;3.05;;;9.40;93.10;;;;;;5012812;28;20064;-82
2021/03/16 09:11:43;;;;;;;10.18;3.22;;;9.20;93.80;;;;;;5012950;28;20033;-82
2021/03/16 09:14:10;;;;;;;12.15;2.70;;;9.40;94.30;;;;;;5014637;28;20025;-81
2021/03/16 09:16:43;;;;;;;11.85;3.90;;;9.70;93.00;;;;;;5016347;28;20482;-81
2021/03/16 09:19:11;;;;;;;7.70;2.83;;;9.60;92.30;;;;;;5015692;28;20026;-81
2021/03/16 09:21:51;;;;;;;6.00;2.60;;;9.60;94.50;;;;;;5015920;28;20025;-82
2021/03/16 09:24:25;;;;;;;7.47;2.53;;;9.70;93.70;;;;;;5016551;28;20018;-82
2021/03/16 09:27:08;;;;;;;7.13;2.55;;;9.50;92.90;;;;;;5016181;28;20245;-83
2021/03/16 09:29:36;;;;;;;10.43;3.42;;;9.40;93.20;;;;;;5016193;28;20034;-82
2021/03/16 09:32:07;;;;;;;11.05;2.72;;;9.30;94.10;;;;;;5016317;28;20032;-82
2021/03/16 09:34:35;;;;;;;6.45;2.70;;;9.10;94.30;;;;;;5015984;28;20026;-82
2021/03/16 09:37:11;;;;;;;6.30;2.42;;;9.10;95.20;;;;;;5015716;28;20034;-82
2021/03/16 09:39:36;;;;;;;11.20;3.20;;;9.20;96.20;;;;;;5015706;28;20030;-82
2021/03/16 09:42:05;;;;;;;9.18;3.08;;;9.30;95.70;;;;;;5015547;28;20037;-82
2021/03/16 09:44:40;;;;;;;10.10;3.75;;;10.00;94.30;;;;;;5015579;28;20022;-82
2021/03/16 09:47:07;;;;;;;6.32;2.20;;;11.10;90.50;;;;;;5015486;28;20034;-81
2021/03/16 09:49:37;;;;;;;5.80;2.58;;;11.70;87.10;;;;;;5015717;28;20450;-81
2021/03/16 09:52:04;;;;;;;9.98;2.78;;;11.50;85.10;;;;;;5015698;28;20037;-82
2021/03/16 09:54:42;;;;;;;4.80;2.38;;;10.70;90.00;;;;;;5015531;28;20034;-82
2021/03/16 09:57:10;;;;;;;11.93;3.20;;;10.10;91.10;;;;;;5015480;28;20030;-81
2021/03/16 09:59:37;;;;;;;7.88;2.97;;;10.00;91.20;;;;;;5013924;28;20076;-82
2021/03/16 10:02:04;;;;;;;9.40;3.50;;;10.70;90.50;;;;;;5030325;28;20386;-82
2021/03/16 10:04:42;;;;;;;13.68;3.17;;;11.40;89.30;;;;;;5015284;28;20044;-82
2021/03/16 10:07:07;;;;;;;5.10;2.72;;;11.50;87.20;;;;;;5015128;28;20037;-81
2021/03/16 10:09:40;;;;;;;8.18;2.92;;;14.40;76.70;;;;;;5015373;28;20101;-82
2021/03/16 10:12:19;;;;;;;16.95;5.10;;;12.60;75.60;;;;;;5014955;28;20057;-82
2021/03/16 10:14:51;;;;;;;8.80;3.72;;;11.20;86.30;;;;;;5015078;28;20022;-81
2021/03/16 10:17:30;;;;;;;8.93;3.70;;;10.50;92.20;;;;;;5014451;28;20056;-83
2021/03/16 10:20:05;;;;;;;7.15;3.10;;;10.40;93.30;;;;;;5014823;28;20061;-82
2021/03/16 10:22:34;;;;;;;5.82;3.00;;;10.20;95.20;;;;;;5014533;28;20030;-82
2021/03/16 10:25:08;;;;;;;7.78;2.80;;;10.10;95.50;;;;;;5014292;28;20517;-81
2021/03/16 10:27:34;;;;;;;16.08;3.10;;;10.30;95.90;;;;;;5014701;28;20029;-82
2021/03/16 10:30:06;;;;;;;10.80;2.72;;;11.70;91.40;;;;;;5014482;28;20022;-82
2021/03/16 10:32:32;;;;;;;13.45;3.28;;;11.40;90.80;;;;;;5014739;28;20034;-82
2021/03/16 10:34:58;;;;;;;6.97;2.92;;;11.10;91.30;;;;;;5014727;28;20029;-82
2021/03/16 10:37:25;;;;;;;8.88;2.80;;;11.60;90.60;;;;;;5014292;28;20543;-82
2021/03/16 10:39:51;;;;;;;8.20;2.67;;;13.40;82.80;;;;;;5014955;28;20014;-82
2021/03/16 10:42:17;;;;;;;7.20;3.35;;;13.10;81.10;;;;;;5014161;28;20040;-82
2021/03/16 10:44:44;;;;;;;8.05;2.80;;;19.80;67.80;;;;;;5014601;28;20026;-82
2021/03/16 10:47:10;;;;;;;10.52;3.85;;;20.90;55.10;;;;;;5014046;28;20026;-81
2021/03/16 10:49:36;;;;;;;7.78;3.13;;;23.10;49.10;;;;;;5014474;28;20030;-82
2021/03/16 10:52:03;;;;;;;13.90;3.03;;;23.60;48.70;;;;;;5014145;28;20375;-82
2021/03/16 10:54:29;;;;;;;10.63;2.72;;;18.40;51.50;;;;;;5014219;28;20026;-82
2021/03/16 10:56:55;;;;;;;9.50;2.75;;;15.50;64.60;;;;;;5014577;28;20034;-82
2021/03/16 10:59:24;;;;;;;7.60;3.50;;;14.40;66.90;;;;;;5013775;28;20080;-82
2021/03/16 11:01:51;;;;;;;7.07;3.03;;;13.10;69.50;;;;;;5014440;28;20124;-82
2021/03/16 11:04:20;;;;;;;7.63;2.80;;;16.10;72.10;;;;;;5013779;28;20068;-82
2021/03/16 11:06:46;;;;;;;8.30;3.00;;;19.40;54.00;;;;;;5014306;28;20029;-82
2021/03/16 11:09:13;;;;;;;11.18;3.13;;;15.90;62.90;;;;;;5013573;28;20038;-82
2021/03/16 11:11:39;;;;;;;8.50;3.28;;;16.10;69.30;;;;;;5014174;28;20030;-82
2021/03/16 11:14:05;;;;;;;5.82;2.78;;;16.00;65.60;;;;;;5012347;28;20524;-82
2021/03/16 11:16:31;;;;;;;7.13;2.88;;;15.40;65.10;;;;;;5014187;28;20038;-82
2021/03/16 11:18:57;;;;;;;6.15;3.10;;;15.80;62.60;;;;;;5014000;28;20030;-82
2021/03/16 11:21:22;;;;;;;4.47;2.40;;;14.90;63.00;;;;;;5013806;28;20033;-82
2021/03/16 11:23:48;;;;;;;6.47;2.88;;;16.30;59.80;;;;;;5014113;28;20052;-82
2021/03/16 11:26:14;;;;;;;8.52;3.60;;;19.90;53.90;;;;;;5014378;28;20030;-82
2021/03/16 11:28:40;;;;;;;6.80;2.78;;;22.60;46.70;;;;;;5013991;28;20394;-82
2021/03/16 11:31:06;;;;;;;5.40;3.20;;;20.80;45.80;;;;;;5013733;28;20033;-82
2021/03/16 11:33:32;;;;;;;10.07;4.40;;;23.70;42.20;;;;;;5013506;28;20040;-82
2021/03/16 11:35:58;;;;;;;8.90;3.20;;;26.70;41.10;;;;;;5013981;28;20030;-82
2021/03/16 11:38:24;;;;;;;8.10;3.15;;;29.60;37.80;;;;;;5028885;28;20107;-83
2021/03/16 11:40:51;;;;;;;5.72;3.30;;;30.50;35.00;;;;;;5013796;28;20061;-83
2021/03/16 11:43:17;;;;;;;5.80;2.65;;;28.90;34.60;;;;;;5012964;28;20140;-83
2021/03/16 11:45:44;;;;;;;7.20;3.15;;;25.60;40.20;;;;;;5013548;28;20101;-83
2021/03/16 11:48:10;;;;;;;6.18;2.45;;;20.50;45.20;;;;;;5013325;28;20014;-83
2021/03/16 11:50:36;;;;;;;6.75;2.78;;;18.10;50.30;;;;;;5013384;28;20100;-83
2021/03/16 11:53:03;;;;;;;6.45;3.13;;;16.60;55.80;;;;;;5013563;28;20382;-83
2021/03/16 11:55:29;;;;;;;6.47;3.25;;;15.60;58.60;;;;;;5013464;28;20121;-82
2021/03/16 11:57:55;;;;;;;10.80;2.70;;;15.10;59.60;;;;;;5013273;28;20038;-82
2021/03/16 12:00:21;;;;;;;7.18;3.30;;;14.20;62.00;;;;;;5013421;28;20021;-82
2021/03/16 12:02:46;;;;;;;4.55;2.50;;;14.00;64.40;;;;;;5013517;28;20076;-82
2021/03/16 12:05:12;;;;;;;8.30;3.25;;;14.00;63.40;;;;;;5013338;28;20109;-82
2021/03/16 12:07:39;;;;;;;5.25;2.75;;;19.10;57.60;;;;;;5013146;28;20109;-82
2021/03/16 12:10:06;;;;;;;8.00;3.30;;;26.40;42.40;;;;;;5013719;28;20030;-82
2021/03/16 12:12:33;;;;;;;7.13;3.42;;;28.10;36.50;;;;;;5013097;28;20033;-83
2021/03/16 12:14:58;;;;;;;6.07;2.78;;;31.00;33.50;;;;;;5013490;28;20034;-83
2021/03/16 12:17:24;;;;;;;5.53;2.80;;;31.00;30.70;;;;;;5012763;28;20026;-83
2021/03/16 12:19:50;;;;;;;6.03;3.30;;;30.60;31.10;;;;;;5012841;28;20034;-83
2021/03/16 12:22:16;;;;;;;7.75;3.67;;;32.30;31.80;;;;;;5012693;28;20492;-83
2021/03/16 12:24:42;;;;;;;2.80;2.38;;;27.10;36.70;;;;;;5013365;28;20053;-83
2021/03/16 12:27:07;;;;;;;5.00;2.45;;;21.30;41.10;;;;;;5012875;28;20029;-83
2021/03/16 12:29:33;;;;;;;4.97;2.40;;;17.60;46.30;;;;;;5012894;28;20529;-83
2021/03/16 12:31:59;;;;;;;8.77;3.15;;;15.80;53.10;;;;;;5013262;28;20136;-83
2021/03/16 12:34:24;;;;;;;6.28;2.78;;;15.10;59.60;;;;;;5012768;28;20034;-83
2021/03/16 12:36:51;;;;;;;5.03;2.72;;;14.70;60.10;;;;;;5013035;28;20113;-83
2021/03/16 12:39:17;;;;;;;5.10;2.58;;;14.30;61.30;;;;;;5012759;28;20076;-82
2021/03/16 12:41:43;;;;;;;6.28;2.58;;;14.20;61.20;;;;;;5012744;28;20026;-82
2021/03/16 12:44:08;;;;;;;9.82;2.97;;;14.10;62.10;;;;;;5012808;28;20037;-82
2021/03/16 12:46:34;;;;;;;7.60;2.40;;;14.30;63.20;;;;;;5013130;28;20029;-82
2021/03/16 12:49:00;;;;;;;4.53;2.15;;;14.50;61.80;;;;;;5014870;28;20041;-82
2021/03/16 12:51:26;;;;;;;10.20;2.95;;;14.50;63.70;;;;;;5016552;28;20422;-82
2021/03/16 12:53:51;;;;;;;8.98;2.10;;;14.20;63.50;;;;;;5016436;28;20502;-82
2021/03/16 12:56:17;;;;;;;8.77;2.78;;;13.80;65.10;;;;;;5016098;28;20026;-82